sensor_id;sensor_type;location;lat;lon;timestamp;P1;durP1;ratioP1;P2;durP2;ratioP2
27365;SDS011;14837;57.148;-2.144;2023-02-28T00:01:20;8.57;;;2.15;;
27365;SDS011;14837;57.148;-2.144;2023-02-28T00:03:47;3.15;;;1.80;;
27365;SDS011;14837;57.148;-2.144;2023-02-28T00:06:13;4.45;;;1.95;;
27365;SDS011;14837;57.148;-2.144;2023-02-28T00:08:40;4.53;;;2.10;;
27365;SDS011;14837;57.148;-2.144;2023-02-28T00:11:08;4.15;;;2.40;;
27365;SDS011;14837;57.148;-2.144;2023-02-28T00:13:36;5.28;;;2.40;;
27365;SDS011;14837;57.148;-2.144;2023-02-28T00:16:06;4.60;;;2.60;;
27365;SDS011;14837;57.148;-2.144;2023-02-28T00:18:34;7.93;;;1.88;;
27365;SDS011;14837;57.148;-2.144;2023-02-28T00:21:01;3.28;;;2.17;;
27365;SDS011;14837;57.148;-2.144;2023-02-28T00:23:27;4.57;;;2.28;;
27365;SDS011;14837;57.148;-2.144;2023-02-28T00:25:54;9.18;;;2.33;;
27365;SDS011;14837;57.148;-2.144;2023-02-28T00:28:21;4.70;;;2.25;;
27365;SDS011;14837;57.148;-2.144;2023-02-28T00:30:48;5.70;;;2.13;;
27365;SDS011;14837;57.148;-2.144;2023-02-28T00:33:14;5.10;;;2.20;;
27365;SDS011;14837;57.148;-2.144;2023-02-28T00:35:41;3.58;;;1.92;;
27365;SDS011;14837;57.148;-2.144;2023-02-28T00:38:08;4.43;;;1.88;;
27365;SDS011;14837;57.148;-2.144;2023-02-28T00:40:34;6.65;;;2.20;;
27365;SDS011;14837;57.148;-2.144;2023-02-28T00:43:01;3.63;;;2.30;;
27365;SDS011;14837;57.148;-2.144;2023-02-28T00:45:27;6.53;;;2.47;;
27365;SDS011;14837;57.148;-2.144;2023-02-28T00:47:54;3.85;;;2.05;;
27365;SDS011;14837;57.148;-2.144;2023-02-28T00:50:21;4.90;;;2.45;;
27365;SDS011;14837;57.148;-2.144;2023-02-28T00:52:47;4.72;;;2.65;;
27365;SDS011;14837;57.148;-2.144;2023-02-28T00:55:14;5.50;;;2.58;;
27365;SDS011;14837;57.148;-2.144;2023-02-28T00:57:41;7.32;;;2.33;;
27365;SDS011;14837;57.148;-2.144;2023-02-28T01:00:08;3.30;;;2.22;;
27365;SDS011;14837;57.148;-2.144;2023-02-28T01:02:34;4.55;;;2.80;;
27365;SDS011;14837;57.148;-2.144;2023-02-28T01:05:01;4.57;;;2.17;;
27365;SDS011;14837;57.148;-2.144;2023-02-28T01:07:27;10.30;;;2.47;;
27365;SDS011;14837;57.148;-2.144;2023-02-28T01:09:54;4.75;;;2.28;;
27365;SDS011;14837;57.148;-2.144;2023-02-28T01:12:21;7.75;;;3.15;;
27365;SDS011;14837;57.148;-2.144;2023-02-28T01:14:47;11.70;;;2.88;;
27365;SDS011;14837;57.148;-2.144;2023-02-28T01:17:14;6.57;;;2.72;;
27365;SDS011;14837;57.148;-2.144;2023-02-28T01:19:40;3.92;;;2.92;;
27365;SDS011;14837;57.148;-2.144;2023-02-28T01:22:07;5.20;;;2.88;;
27365;SDS011;14837;57.148;-2.144;2023-02-28T01:24:33;4.32;;;2.50;;
27365;SDS011;14837;57.148;-2.144;2023-02-28T01:27:00;4.40;;;2.83;;
27365;SDS011;14837;57.148;-2.144;2023-02-28T01:29:26;8.20;;;3.45;;
27365;SDS011;14837;57.148;-2.144;2023-02-28T01:31:53;4.90;;;2.78;;
27365;SDS011;14837;57.148;-2.144;2023-02-28T01:34:20;6.97;;;3.83;;
27365;SDS011;14837;57.148;-2.144;2023-02-28T01:36:46;4.80;;;3.47;;
27365;SDS011;14837;57.148;-2.144;2023-02-28T01:39:13;4.70;;;3.33;;
27365;SDS011;14837;57.148;-2.144;2023-02-28T01:41:40;5.05;;;2.90;;
27365;SDS011;14837;57.148;-2.144;2023-02-28T01:44:54;5.80;;;3.22;;
27365;SDS011;14837;57.148;-2.144;2023-02-28T01:46:53;6.32;;;3.55;;
27365;SDS011;14837;57.148;-2.144;2023-02-28T01:49:20;5.32;;;3.08;;
27365;SDS011;14837;57.148;-2.144;2023-02-28T01:51:48;5.85;;;3.45;;
27365;SDS011;14837;57.148;-2.144;2023-02-28T01:54:29;6.65;;;3.38;;
27365;SDS011;14837;57.148;-2.144;2023-02-28T01:57:07;5.95;;;3.25;;
27365;SDS011;14837;57.148;-2.144;2023-02-28T01:59:41;5.43;;;2.92;;
27365;SDS011;14837;57.148;-2.144;2023-02-28T02:02:18;4.35;;;2.67;;
27365;SDS011;14837;57.148;-2.144;2023-02-28T02:04:46;4.22;;;3.25;;
27365;SDS011;14837;57.148;-2.144;2023-02-28T02:07:16;7.35;;;3.17;;
27365;SDS011;14837;57.148;-2.144;2023-02-28T02:09:43;4.30;;;2.70;;
27365;SDS011;14837;57.148;-2.144;2023-02-28T02:12:17;5.05;;;2.95;;
27365;SDS011;14837;57.148;-2.144;2023-02-28T02:17:36;6.03;;;2.67;;
27365;SDS011;14837;57.148;-2.144;2023-02-28T02:30:14;5.03;;;2.13;;
27365;SDS011;14837;57.148;-2.144;2023-02-28T02:35:15;5.55;;;2.63;;
27365;SDS011;14837;57.148;-2.144;2023-02-28T02:37:50;4.15;;;2.08;;
27365;SDS011;14837;57.148;-2.144;2023-02-28T02:40:19;2.90;;;2.42;;
27365;SDS011;14837;57.148;-2.144;2023-02-28T02:42:51;2.42;;;1.88;;
27365;SDS011;14837;57.148;-2.144;2023-02-28T02:47:51;2.07;;;1.70;;
27365;SDS011;14837;57.148;-2.144;2023-02-28T02:50:29;2.17;;;1.70;;
27365;SDS011;14837;57.148;-2.144;2023-02-28T02:52:58;3.40;;;1.95;;
27365;SDS011;14837;57.148;-2.144;2023-02-28T02:55:26;3.00;;;1.90;;
27365;SDS011;14837;57.148;-2.144;2023-02-28T02:57:54;5.10;;;2.17;;
27365;SDS011;14837;57.148;-2.144;2023-02-28T03:00:26;2.38;;;1.75;;
27365;SDS011;14837;57.148;-2.144;2023-02-28T03:02:54;1.90;;;1.70;;
27365;SDS011;14837;57.148;-2.144;2023-02-28T03:05:26;2.63;;;1.92;;
27365;SDS011;14837;57.148;-2.144;2023-02-28T03:07:53;3.72;;;2.08;;
27365;SDS011;14837;57.148;-2.144;2023-02-28T03:10:31;1.92;;;1.75;;
27365;SDS011;14837;57.148;-2.144;2023-02-28T03:15:57;2.10;;;1.67;;
27365;SDS011;14837;57.148;-2.144;2023-02-28T03:18:33;1.80;;;1.60;;
27365;SDS011;14837;57.148;-2.144;2023-02-28T03:21:06;1.67;;;1.58;;
27365;SDS011;14837;57.148;-2.144;2023-02-28T03:23:55;2.92;;;1.75;;
27365;SDS011;14837;57.148;-2.144;2023-02-28T03:26:23;2.78;;;1.80;;
27365;SDS011;14837;57.148;-2.144;2023-02-28T03:29:05;1.88;;;1.65;;
27365;SDS011;14837;57.148;-2.144;2023-02-28T03:31:36;1.60;;;1.47;;
27365;SDS011;14837;57.148;-2.144;2023-02-28T03:36:36;2.70;;;2.03;;
27365;SDS011;14837;57.148;-2.144;2023-02-28T03:39:17;2.40;;;2.10;;
27365;SDS011;14837;57.148;-2.144;2023-02-28T03:41:47;3.15;;;2.47;;
27365;SDS011;14837;57.148;-2.144;2023-02-28T03:44:29;2.55;;;2.10;;
27365;SDS011;14837;57.148;-2.144;2023-02-28T03:47:00;3.30;;;2.60;;
27365;SDS011;14837;57.148;-2.144;2023-02-28T03:49:32;3.70;;;2.92;;
27365;SDS011;14837;57.148;-2.144;2023-02-28T03:52:02;4.97;;;2.85;;
27365;SDS011;14837;57.148;-2.144;2023-02-28T03:54:30;2.80;;;2.22;;
27365;SDS011;14837;57.148;-2.144;2023-02-28T03:57:10;3.25;;;2.90;;
27365;SDS011;14837;57.148;-2.144;2023-02-28T03:59:39;4.45;;;3.17;;
27365;SDS011;14837;57.148;-2.144;2023-02-28T04:02:08;4.90;;;2.72;;
27365;SDS011;14837;57.148;-2.144;2023-02-28T04:04:35;3.70;;;2.60;;
27365;SDS011;14837;57.148;-2.144;2023-02-28T04:07:03;3.70;;;3.30;;
27365;SDS011;14837;57.148;-2.144;2023-02-28T04:09:33;4.90;;;3.17;;
27365;SDS011;14837;57.148;-2.144;2023-02-28T04:12:00;4.03;;;3.03;;
27365;SDS011;14837;57.148;-2.144;2023-02-28T04:14:26;4.30;;;2.42;;
27365;SDS011;14837;57.148;-2.144;2023-02-28T04:16:53;4.30;;;2.55;;
27365;SDS011;14837;57.148;-2.144;2023-02-28T04:19:20;5.18;;;2.92;;
27365;SDS011;14837;57.148;-2.144;2023-02-28T04:21:48;3.30;;;2.75;;
27365;SDS011;14837;57.148;-2.144;2023-02-28T04:24:16;3.53;;;2.80;;
27365;SDS011;14837;57.148;-2.144;2023-02-28T04:26:44;3.63;;;1.98;;
27365;SDS011;14837;57.148;-2.144;2023-02-28T04:29:12;3.65;;;2.03;;
27365;SDS011;14837;57.148;-2.144;2023-02-28T04:31:40;3.22;;;2.00;;
27365;SDS011;14837;57.148;-2.144;2023-02-28T04:34:06;3.15;;;2.30;;
27365;SDS011;14837;57.148;-2.144;2023-02-28T04:36:33;2.90;;;1.98;;
27365;SDS011;14837;57.148;-2.144;2023-02-28T04:39:00;3.58;;;2.42;;
27365;SDS011;14837;57.148;-2.144;2023-02-28T04:41:27;3.92;;;3.03;;
27365;SDS011;14837;57.148;-2.144;2023-02-28T04:43:57;7.60;;;2.50;;
27365;SDS011;14837;57.148;-2.144;2023-02-28T04:46:24;3.58;;;2.90;;
27365;SDS011;14837;57.148;-2.144;2023-02-28T04:48:51;4.07;;;2.47;;
27365;SDS011;14837;57.148;-2.144;2023-02-28T04:51:18;3.58;;;2.08;;
27365;SDS011;14837;57.148;-2.144;2023-02-28T04:53:46;2.60;;;2.17;;
27365;SDS011;14837;57.148;-2.144;2023-02-28T04:56:13;2.88;;;2.63;;
27365;SDS011;14837;57.148;-2.144;2023-02-28T04:58:40;3.20;;;2.72;;
27365;SDS011;14837;57.148;-2.144;2023-02-28T05:01:18;4.80;;;3.08;;
27365;SDS011;14837;57.148;-2.144;2023-02-28T05:03:45;4.00;;;2.38;;
27365;SDS011;14837;57.148;-2.144;2023-02-28T05:06:12;4.53;;;2.75;;
27365;SDS011;14837;57.148;-2.144;2023-02-28T05:08:39;3.17;;;2.08;;
27365;SDS011;14837;57.148;-2.144;2023-02-28T05:11:07;3.97;;;2.88;;
27365;SDS011;14837;57.148;-2.144;2023-02-28T05:13:34;5.03;;;2.10;;
27365;SDS011;14837;57.148;-2.144;2023-02-28T05:16:02;2.65;;;2.30;;
27365;SDS011;14837;57.148;-2.144;2023-02-28T05:18:28;3.00;;;2.35;;
27365;SDS011;14837;57.148;-2.144;2023-02-28T05:20:55;3.65;;;2.53;;
27365;SDS011;14837;57.148;-2.144;2023-02-28T05:23:21;5.10;;;2.45;;
27365;SDS011;14837;57.148;-2.144;2023-02-28T05:25:48;2.88;;;2.45;;
27365;SDS011;14837;57.148;-2.144;2023-02-28T05:28:15;3.47;;;2.67;;
27365;SDS011;14837;57.148;-2.144;2023-02-28T05:30:42;2.92;;;2.20;;
27365;SDS011;14837;57.148;-2.144;2023-02-28T05:33:09;3.55;;;2.20;;
27365;SDS011;14837;57.148;-2.144;2023-02-28T05:35:38;3.85;;;2.88;;
27365;SDS011;14837;57.148;-2.144;2023-02-28T05:38:04;2.80;;;2.47;;
27365;SDS011;14837;57.148;-2.144;2023-02-28T05:40:31;2.95;;;2.42;;
27365;SDS011;14837;57.148;-2.144;2023-02-28T05:42:57;3.92;;;2.28;;
27365;SDS011;14837;57.148;-2.144;2023-02-28T05:45:24;2.67;;;2.17;;
27365;SDS011;14837;57.148;-2.144;2023-02-28T05:47:54;3.38;;;2.55;;
27365;SDS011;14837;57.148;-2.144;2023-02-28T05:50:21;3.00;;;2.15;;
27365;SDS011;14837;57.148;-2.144;2023-02-28T05:52:50;2.88;;;2.47;;
27365;SDS011;14837;57.148;-2.144;2023-02-28T05:55:17;4.22;;;3.25;;
27365;SDS011;14837;57.148;-2.144;2023-02-28T05:57:44;6.40;;;3.00;;
27365;SDS011;14837;57.148;-2.144;2023-02-28T06:00:11;3.80;;;3.08;;
27365;SDS011;14837;57.148;-2.144;2023-02-28T06:02:38;4.03;;;3.13;;
27365;SDS011;14837;57.148;-2.144;2023-02-28T06:05:09;3.92;;;3.33;;
27365;SDS011;14837;57.148;-2.144;2023-02-28T06:07:39;4.90;;;3.63;;
27365;SDS011;14837;57.148;-2.144;2023-02-28T06:10:05;3.33;;;3.00;;
27365;SDS011;14837;57.148;-2.144;2023-02-28T06:12:32;4.50;;;2.83;;
27365;SDS011;14837;57.148;-2.144;2023-02-28T06:14:59;4.45;;;2.97;;
27365;SDS011;14837;57.148;-2.144;2023-02-28T06:17:25;4.28;;;3.65;;
27365;SDS011;14837;57.148;-2.144;2023-02-28T06:19:52;4.38;;;3.33;;
27365;SDS011;14837;57.148;-2.144;2023-02-28T06:22:18;4.38;;;3.15;;
27365;SDS011;14837;57.148;-2.144;2023-02-28T06:24:45;5.15;;;2.75;;
27365;SDS011;14837;57.148;-2.144;2023-02-28T06:27:11;3.50;;;2.85;;
27365;SDS011;14837;57.148;-2.144;2023-02-28T06:29:38;4.78;;;3.33;;
27365;SDS011;14837;57.148;-2.144;2023-02-28T06:32:06;3.88;;;2.75;;
27365;SDS011;14837;57.148;-2.144;2023-02-28T06:34:32;4.82;;;3.10;;
27365;SDS011;14837;57.148;-2.144;2023-02-28T06:37:00;4.22;;;3.22;;
27365;SDS011;14837;57.148;-2.144;2023-02-28T06:39:30;4.75;;;3.78;;
27365;SDS011;14837;57.148;-2.144;2023-02-28T06:41:57;5.22;;;4.22;;
27365;SDS011;14837;57.148;-2.144;2023-02-28T06:44:24;4.90;;;3.63;;
27365;SDS011;14837;57.148;-2.144;2023-02-28T06:46:51;4.72;;;3.25;;
27365;SDS011;14837;57.148;-2.144;2023-02-28T06:49:17;4.38;;;2.85;;
27365;SDS011;14837;57.148;-2.144;2023-02-28T06:51:44;3.92;;;2.80;;
27365;SDS011;14837;57.148;-2.144;2023-02-28T06:54:11;3.88;;;2.70;;
27365;SDS011;14837;57.148;-2.144;2023-02-28T06:56:38;4.55;;;3.00;;
27365;SDS011;14837;57.148;-2.144;2023-02-28T06:59:04;5.65;;;3.00;;
27365;SDS011;14837;57.148;-2.144;2023-02-28T07:01:32;3.58;;;2.55;;
27365;SDS011;14837;57.148;-2.144;2023-02-28T07:04:02;3.70;;;2.92;;
27365;SDS011;14837;57.148;-2.144;2023-02-28T07:06:28;3.55;;;3.13;;
27365;SDS011;14837;57.148;-2.144;2023-02-28T07:08:55;4.18;;;2.97;;
27365;SDS011;14837;57.148;-2.144;2023-02-28T07:11:22;4.07;;;2.78;;
27365;SDS011;14837;57.148;-2.144;2023-02-28T07:13:55;4.53;;;2.92;;
27365;SDS011;14837;57.148;-2.144;2023-02-28T07:16:22;4.00;;;3.33;;
27365;SDS011;14837;57.148;-2.144;2023-02-28T07:18:49;5.03;;;3.67;;
27365;SDS011;14837;57.148;-2.144;2023-02-28T07:21:16;3.70;;;2.65;;
27365;SDS011;14837;57.148;-2.144;2023-02-28T07:23:42;4.30;;;3.22;;
27365;SDS011;14837;57.148;-2.144;2023-02-28T07:26:14;4.43;;;3.20;;
27365;SDS011;14837;57.148;-2.144;2023-02-28T07:28:41;3.92;;;3.30;;
27365;SDS011;14837;57.148;-2.144;2023-02-28T07:31:08;3.85;;;3.00;;
27365;SDS011;14837;57.148;-2.144;2023-02-28T07:33:36;4.15;;;3.05;;
27365;SDS011;14837;57.148;-2.144;2023-02-28T07:36:03;5.28;;;2.78;;
27365;SDS011;14837;57.148;-2.144;2023-02-28T07:38:30;4.53;;;3.00;;
27365;SDS011;14837;57.148;-2.144;2023-02-28T07:40:57;5.28;;;2.97;;
27365;SDS011;14837;57.148;-2.144;2023-02-28T07:43:23;5.72;;;2.95;;
27365;SDS011;14837;57.148;-2.144;2023-02-28T07:45:50;5.20;;;2.95;;
27365;SDS011;14837;57.148;-2.144;2023-02-28T07:48:16;6.30;;;3.22;;
27365;SDS011;14837;57.148;-2.144;2023-02-28T07:50:43;5.55;;;2.90;;
27365;SDS011;14837;57.148;-2.144;2023-02-28T07:53:10;5.00;;;2.90;;
27365;SDS011;14837;57.148;-2.144;2023-02-28T07:55:36;2.92;;;2.58;;
27365;SDS011;14837;57.148;-2.144;2023-02-28T07:58:03;3.25;;;2.22;;
27365;SDS011;14837;57.148;-2.144;2023-02-28T08:00:29;3.55;;;2.97;;
27365;SDS011;14837;57.148;-2.144;2023-02-28T08:02:58;4.68;;;2.60;;
27365;SDS011;14837;57.148;-2.144;2023-02-28T08:05:24;4.32;;;2.40;;
27365;SDS011;14837;57.148;-2.144;2023-02-28T08:07:51;4.53;;;2.47;;
27365;SDS011;14837;57.148;-2.144;2023-02-28T08:10:17;6.70;;;3.05;;
27365;SDS011;14837;57.148;-2.144;2023-02-28T08:12:44;6.32;;;3.40;;
27365;SDS011;14837;57.148;-2.144;2023-02-28T08:15:11;4.43;;;3.47;;
27365;SDS011;14837;57.148;-2.144;2023-02-28T08:17:38;3.67;;;2.85;;
27365;SDS011;14837;57.148;-2.144;2023-02-28T08:20:04;6.13;;;3.85;;
27365;SDS011;14837;57.148;-2.144;2023-02-28T08:22:31;4.70;;;3.75;;
27365;SDS011;14837;57.148;-2.144;2023-02-28T08:24:58;6.43;;;3.95;;
27365;SDS011;14837;57.148;-2.144;2023-02-28T08:27:24;4.78;;;3.65;;
27365;SDS011;14837;57.148;-2.144;2023-02-28T08:29:51;6.45;;;3.97;;
27365;SDS011;14837;57.148;-2.144;2023-02-28T08:32:17;8.63;;;4.28;;
27365;SDS011;14837;57.148;-2.144;2023-02-28T08:34:55;7.47;;;3.58;;
27365;SDS011;14837;57.148;-2.144;2023-02-28T08:37:22;5.18;;;3.95;;
27365;SDS011;14837;57.148;-2.144;2023-02-28T08:39:48;6.82;;;4.20;;
27365;SDS011;14837;57.148;-2.144;2023-02-28T08:42:15;5.63;;;3.63;;
27365;SDS011;14837;57.148;-2.144;2023-02-28T08:44:41;12.27;;;4.00;;
27365;SDS011;14837;57.148;-2.144;2023-02-28T08:47:08;7.20;;;3.65;;
27365;SDS011;14837;57.148;-2.144;2023-02-28T08:49:35;5.35;;;3.78;;
27365;SDS011;14837;57.148;-2.144;2023-02-28T08:52:01;5.78;;;4.00;;
27365;SDS011;14837;57.148;-2.144;2023-02-28T08:54:29;5.20;;;3.50;;
27365;SDS011;14837;57.148;-2.144;2023-02-28T08:56:57;3.85;;;3.40;;
27365;SDS011;14837;57.148;-2.144;2023-02-28T08:59:24;4.30;;;3.20;;
27365;SDS011;14837;57.148;-2.144;2023-02-28T09:01:51;4.88;;;2.97;;
27365;SDS011;14837;57.148;-2.144;2023-02-28T09:04:17;3.92;;;3.13;;
27365;SDS011;14837;57.148;-2.144;2023-02-28T09:06:46;7.18;;;3.60;;
27365;SDS011;14837;57.148;-2.144;2023-02-28T09:09:15;5.13;;;2.70;;
27365;SDS011;14837;57.148;-2.144;2023-02-28T09:11:41;4.50;;;3.08;;
27365;SDS011;14837;57.148;-2.144;2023-02-28T09:14:08;4.30;;;3.47;;
27365;SDS011;14837;57.148;-2.144;2023-02-28T09:16:35;5.43;;;3.45;;
27365;SDS011;14837;57.148;-2.144;2023-02-28T09:19:02;7.25;;;4.10;;
27365;SDS011;14837;57.148;-2.144;2023-02-28T09:21:28;6.63;;;3.58;;
27365;SDS011;14837;57.148;-2.144;2023-02-28T09:23:55;5.88;;;3.45;;
27365;SDS011;14837;57.148;-2.144;2023-02-28T09:26:23;4.60;;;3.38;;
27365;SDS011;14837;57.148;-2.144;2023-02-28T09:28:51;4.53;;;3.13;;
27365;SDS011;14837;57.148;-2.144;2023-02-28T09:31:19;6.68;;;3.97;;
27365;SDS011;14837;57.148;-2.144;2023-02-28T09:33:50;4.25;;;2.92;;
27365;SDS011;14837;57.148;-2.144;2023-02-28T09:36:17;4.30;;;3.08;;
27365;SDS011;14837;57.148;-2.144;2023-02-28T09:38:44;7.07;;;3.15;;
27365;SDS011;14837;57.148;-2.144;2023-02-28T09:43:45;3.75;;;3.35;;
27365;SDS011;14837;57.148;-2.144;2023-02-28T09:48:52;2.88;;;2.40;;
27365;SDS011;14837;57.148;-2.144;2023-02-28T09:54:09;3.63;;;2.40;;
27365;SDS011;14837;57.148;-2.144;2023-02-28T09:56:40;3.70;;;2.70;;
27365;SDS011;14837;57.148;-2.144;2023-02-28T10:09:57;2.40;;;1.90;;
27365;SDS011;14837;57.148;-2.144;2023-02-28T10:12:28;4.57;;;2.13;;
27365;SDS011;14837;57.148;-2.144;2023-02-28T10:14:56;3.08;;;2.17;;
27365;SDS011;14837;57.148;-2.144;2023-02-28T10:17:32;3.75;;;2.28;;
27365;SDS011;14837;57.148;-2.144;2023-02-28T10:20:20;3.17;;;2.15;;
27365;SDS011;14837;57.148;-2.144;2023-02-28T10:25:17;4.70;;;3.17;;
27365;SDS011;14837;57.148;-2.144;2023-02-28T10:27:44;3.30;;;2.63;;
27365;SDS011;14837;57.148;-2.144;2023-02-28T10:30:11;4.05;;;2.65;;
27365;SDS011;14837;57.148;-2.144;2023-02-28T10:32:38;4.13;;;2.40;;
27365;SDS011;14837;57.148;-2.144;2023-02-28T10:35:18;3.28;;;2.58;;
27365;SDS011;14837;57.148;-2.144;2023-02-28T10:37:46;2.92;;;2.15;;
27365;SDS011;14837;57.148;-2.144;2023-02-28T10:42:39;3.42;;;2.42;;
27365;SDS011;14837;57.148;-2.144;2023-02-28T10:45:16;3.42;;;1.95;;
27365;SDS011;14837;57.148;-2.144;2023-02-28T10:48:02;2.35;;;2.03;;
27365;SDS011;14837;57.148;-2.144;2023-02-28T10:53:25;1.92;;;1.70;;
27365;SDS011;14837;57.148;-2.144;2023-02-28T10:56:06;3.33;;;2.33;;
27365;SDS011;14837;57.148;-2.144;2023-02-28T11:01:17;4.82;;;2.90;;
27365;SDS011;14837;57.148;-2.144;2023-02-28T11:03:44;3.38;;;2.47;;
27365;SDS011;14837;57.148;-2.144;2023-02-28T11:06:29;1.92;;;1.52;;
27365;SDS011;14837;57.148;-2.144;2023-02-28T11:08:58;4.45;;;2.47;;
27365;SDS011;14837;57.148;-2.144;2023-02-28T11:11:28;2.78;;;1.52;;
27365;SDS011;14837;57.148;-2.144;2023-02-28T11:14:02;8.48;;;1.50;;
27365;SDS011;14837;57.148;-2.144;2023-02-28T11:16:36;2.75;;;1.60;;
27365;SDS011;14837;57.148;-2.144;2023-02-28T11:19:04;4.60;;;1.75;;
27365;SDS011;14837;57.148;-2.144;2023-02-28T11:21:36;4.80;;;1.60;;
27365;SDS011;14837;57.148;-2.144;2023-02-28T11:24:19;3.38;;;1.45;;
27365;SDS011;14837;57.148;-2.144;2023-02-28T11:26:48;2.63;;;1.48;;
27365;SDS011;14837;57.148;-2.144;2023-02-28T11:29:19;2.03;;;1.55;;
27365;SDS011;14837;57.148;-2.144;2023-02-28T11:32:00;4.53;;;1.30;;
27365;SDS011;14837;57.148;-2.144;2023-02-28T11:34:27;3.90;;;1.75;;
27365;SDS011;14837;57.148;-2.144;2023-02-28T11:36:55;3.35;;;1.90;;
27365;SDS011;14837;57.148;-2.144;2023-02-28T11:39:23;3.28;;;1.15;;
27365;SDS011;14837;57.148;-2.144;2023-02-28T11:42:00;2.47;;;0.90;;
27365;SDS011;14837;57.148;-2.144;2023-02-28T11:47:02;2.70;;;1.00;;
27365;SDS011;14837;57.148;-2.144;2023-02-28T11:57:31;2.47;;;1.13;;
27365;SDS011;14837;57.148;-2.144;2023-02-28T12:00:04;1.52;;;1.23;;
27365;SDS011;14837;57.148;-2.144;2023-02-28T12:23:49;2.67;;;1.10;;
27365;SDS011;14837;57.148;-2.144;2023-02-28T12:26:37;1.73;;;1.30;;
27365;SDS011;14837;57.148;-2.144;2023-02-28T12:29:10;2.90;;;1.63;;
27365;SDS011;14837;57.148;-2.144;2023-02-28T12:31:40;3.42;;;1.08;;
27365;SDS011;14837;57.148;-2.144;2023-02-28T12:34:16;5.38;;;1.60;;
27365;SDS011;14837;57.148;-2.144;2023-02-28T12:36:44;4.75;;;1.73;;
27365;SDS011;14837;57.148;-2.144;2023-02-28T12:39:23;3.80;;;1.25;;
27365;SDS011;14837;57.148;-2.144;2023-02-28T12:41:53;2.20;;;1.60;;
27365;SDS011;14837;57.148;-2.144;2023-02-28T12:44:21;3.53;;;1.48;;
27365;SDS011;14837;57.148;-2.144;2023-02-28T12:46:54;4.25;;;2.15;;
27365;SDS011;14837;57.148;-2.144;2023-02-28T12:49:24;2.75;;;1.63;;
27365;SDS011;14837;57.148;-2.144;2023-02-28T12:51:52;2.60;;;1.90;;
27365;SDS011;14837;57.148;-2.144;2023-02-28T12:54:28;3.38;;;1.75;;
27365;SDS011;14837;57.148;-2.144;2023-02-28T12:57:13;2.75;;;1.17;;
27365;SDS011;14837;57.148;-2.144;2023-02-28T12:59:51;5.03;;;1.95;;
27365;SDS011;14837;57.148;-2.144;2023-02-28T13:05:10;2.55;;;1.40;;
27365;SDS011;14837;57.148;-2.144;2023-02-28T13:10:07;5.35;;;2.33;;
27365;SDS011;14837;57.148;-2.144;2023-02-28T13:12:34;4.10;;;2.10;;
27365;SDS011;14837;57.148;-2.144;2023-02-28T13:15:04;10.35;;;2.22;;
27365;SDS011;14837;57.148;-2.144;2023-02-28T13:17:31;3.80;;;1.52;;
27365;SDS011;14837;57.148;-2.144;2023-02-28T13:19:58;6.30;;;1.90;;
27365;SDS011;14837;57.148;-2.144;2023-02-28T13:24:53;3.47;;;1.95;;
27365;SDS011;14837;57.148;-2.144;2023-02-28T13:27:21;3.80;;;1.83;;
27365;SDS011;14837;57.148;-2.144;2023-02-28T13:29:52;3.33;;;1.40;;
27365;SDS011;14837;57.148;-2.144;2023-02-28T13:32:19;4.22;;;1.67;;
27365;SDS011;14837;57.148;-2.144;2023-02-28T13:35:11;4.60;;;1.67;;
27365;SDS011;14837;57.148;-2.144;2023-02-28T13:37:37;4.90;;;2.25;;
27365;SDS011;14837;57.148;-2.144;2023-02-28T13:47:44;8.00;;;2.97;;
27365;SDS011;14837;57.148;-2.144;2023-02-28T13:50:24;4.13;;;2.15;;
27365;SDS011;14837;57.148;-2.144;2023-02-28T13:55:29;10.27;;;3.85;;
27365;SDS011;14837;57.148;-2.144;2023-02-28T14:03:17;9.32;;;3.10;;
27365;SDS011;14837;57.148;-2.144;2023-02-28T14:06:04;7.00;;;2.72;;
27365;SDS011;14837;57.148;-2.144;2023-02-28T14:08:34;3.03;;;2.70;;
27365;SDS011;14837;57.148;-2.144;2023-02-28T14:11:09;8.43;;;2.75;;
27365;SDS011;14837;57.148;-2.144;2023-02-28T14:13:49;4.88;;;2.10;;
27365;SDS011;14837;57.148;-2.144;2023-02-28T14:16:17;8.77;;;2.58;;
27365;SDS011;14837;57.148;-2.144;2023-02-28T14:18:50;6.60;;;2.50;;
27365;SDS011;14837;57.148;-2.144;2023-02-28T14:21:38;9.68;;;3.50;;
27365;SDS011;14837;57.148;-2.144;2023-02-28T14:35:27;3.88;;;1.77;;
27365;SDS011;14837;57.148;-2.144;2023-02-28T14:37:28;4.88;;;1.90;;
27365;SDS011;14837;57.148;-2.144;2023-02-28T14:39:56;7.85;;;1.83;;
27365;SDS011;14837;57.148;-2.144;2023-02-28T14:42:27;7.28;;;2.15;;
27365;SDS011;14837;57.148;-2.144;2023-02-28T14:44:54;4.80;;;2.05;;
27365;SDS011;14837;57.148;-2.144;2023-02-28T14:47:23;5.35;;;3.40;;
27365;SDS011;14837;57.148;-2.144;2023-02-28T14:49:50;8.27;;;2.20;;
27365;SDS011;14837;57.148;-2.144;2023-02-28T14:52:19;9.32;;;2.47;;
27365;SDS011;14837;57.148;-2.144;2023-02-28T14:54:46;4.85;;;2.28;;
27365;SDS011;14837;57.148;-2.144;2023-02-28T14:57:21;3.97;;;1.90;;
27365;SDS011;14837;57.148;-2.144;2023-02-28T14:59:56;4.78;;;2.28;;
27365;SDS011;14837;57.148;-2.144;2023-02-28T15:02:23;3.47;;;1.60;;
27365;SDS011;14837;57.148;-2.144;2023-02-28T15:04:58;5.10;;;1.52;;
27365;SDS011;14837;57.148;-2.144;2023-02-28T15:07:25;4.90;;;1.90;;
27365;SDS011;14837;57.148;-2.144;2023-02-28T15:12:34;3.20;;;1.73;;
27365;SDS011;14837;57.148;-2.144;2023-02-28T15:15:00;8.23;;;2.97;;
27365;SDS011;14837;57.148;-2.144;2023-02-28T15:17:27;2.40;;;1.60;;
27365;SDS011;14837;57.148;-2.144;2023-02-28T15:19:54;5.10;;;2.08;;
27365;SDS011;14837;57.148;-2.144;2023-02-28T15:22:25;7.00;;;2.28;;
27365;SDS011;14837;57.148;-2.144;2023-02-28T15:24:55;9.93;;;2.65;;
27365;SDS011;14837;57.148;-2.144;2023-02-28T15:27:23;5.22;;;1.88;;
27365;SDS011;14837;57.148;-2.144;2023-02-28T15:30:00;4.00;;;1.75;;
27365;SDS011;14837;57.148;-2.144;2023-02-28T15:32:35;4.38;;;1.60;;
27365;SDS011;14837;57.148;-2.144;2023-02-28T15:35:17;4.13;;;1.60;;
27365;SDS011;14837;57.148;-2.144;2023-02-28T15:37:46;5.05;;;2.33;;
27365;SDS011;14837;57.148;-2.144;2023-02-28T15:40:16;6.88;;;1.83;;
27365;SDS011;14837;57.148;-2.144;2023-02-28T15:42:43;5.57;;;1.73;;
27365;SDS011;14837;57.148;-2.144;2023-02-28T15:45:37;5.63;;;1.77;;
27365;SDS011;14837;57.148;-2.144;2023-02-28T15:48:25;4.32;;;1.27;;
27365;SDS011;14837;57.148;-2.144;2023-02-28T15:50:57;7.72;;;2.28;;
27365;SDS011;14837;57.148;-2.144;2023-02-28T15:53:29;6.32;;;1.60;;
27365;SDS011;14837;57.148;-2.144;2023-02-28T15:56:00;3.65;;;1.20;;
27365;SDS011;14837;57.148;-2.144;2023-02-28T15:58:27;7.95;;;1.50;;
27365;SDS011;14837;57.148;-2.144;2023-02-28T16:01:04;10.93;;;2.05;;
27365;SDS011;14837;57.148;-2.144;2023-02-28T16:03:38;2.72;;;1.50;;
27365;SDS011;14837;57.148;-2.144;2023-02-28T16:08:31;4.45;;;1.58;;
27365;SDS011;14837;57.148;-2.144;2023-02-28T16:10:58;6.35;;;2.05;;
27365;SDS011;14837;57.148;-2.144;2023-02-28T16:13:24;3.03;;;1.40;;
27365;SDS011;14837;57.148;-2.144;2023-02-28T16:15:51;2.00;;;1.17;;
27365;SDS011;14837;57.148;-2.144;2023-02-28T16:18:17;1.92;;;1.20;;
27365;SDS011;14837;57.148;-2.144;2023-02-28T16:20:44;6.05;;;1.35;;
27365;SDS011;14837;57.148;-2.144;2023-02-28T16:23:10;4.88;;;1.55;;
27365;SDS011;14837;57.148;-2.144;2023-02-28T16:25:41;4.93;;;1.83;;
27365;SDS011;14837;57.148;-2.144;2023-02-28T16:28:10;2.55;;;1.83;;
27365;SDS011;14837;57.148;-2.144;2023-02-28T16:30:38;4.43;;;1.48;;
27365;SDS011;14837;57.148;-2.144;2023-02-28T16:33:07;4.97;;;2.38;;
27365;SDS011;14837;57.148;-2.144;2023-02-28T16:35:34;26.75;;;14.13;;
27365;SDS011;14837;57.148;-2.144;2023-02-28T16:38:00;36.47;;;17.58;;
27365;SDS011;14837;57.148;-2.144;2023-02-28T16:40:27;10.65;;;4.28;;
27365;SDS011;14837;57.148;-2.144;2023-02-28T16:42:57;7.55;;;3.47;;
27365;SDS011;14837;57.148;-2.144;2023-02-28T16:45:26;7.40;;;2.70;;
27365;SDS011;14837;57.148;-2.144;2023-02-28T16:47:53;4.60;;;1.45;;
27365;SDS011;14837;57.148;-2.144;2023-02-28T16:50:22;3.30;;;1.67;;